< < Back
Terminal Aerodrome Forecast


Current Version              Previous Versions:   1  2  3  4  5  6  7  8  9  

Terminal Aerodrome Forecast

794
FTAK31 PAJN 011900 AAA
TAFAHN
TAF AMD
PAHN 011911Z 0119/0218 31010G20KT P6SM FEW070
     FM020300 30008KT P6SM SKC
      AMD LTD TO CLD VIS AND WIND=

Latest METAR

991
SAUS70 KWBC 012000 RRH
MTRAHN
METAR KAHN 011951Z VRB04KT 10SM BKN060 BKN070 29/16 A2998 RMK AO2 SLP145
T02940156


USA.gov is the U.S. government's official web portal to all federal, state and local government web resources and services.